Time;durP1;ratioP1;P1;durP2;ratioP2;P2;SDS_P1;SDS_P2;PMS_P1;PMS_P2;Temp;Humidity;BMP_temperature;BMP_pressure;BME280_temperature;BME280_humidity;BME280_pressure;Samples;Min_cycle;Max_cycle;Signal;HPM_P1;HPM_P2
2022/07/10 00:01:29;;;;;;;8.63;1.47;;;;;;;;;;5043851;28;20248;-74
2022/07/10 00:03:59;;;;;;;3.97;1.30;;;;;;;;;;5053179;28;20210;-74
2022/07/10 00:06:28;;;;;;;3.97;1.13;;;;;;;;;;5052825;28;20235;-74
2022/07/10 00:08:56;;;;;;;5.60;1.20;;;;;;;;;;5053304;28;20589;-74
2022/07/10 00:11:25;;;;;;;5.47;1.20;;;;;;;;;;5053354;28;20664;-74
2022/07/10 00:13:53;;;;;;;3.87;1.17;;;;;;;;;;5048235;28;20199;-74
2022/07/10 00:16:21;;;;;;;4.23;1.17;;;;;;;;;;5043323;28;20232;-74
2022/07/10 00:18:50;;;;;;;6.90;1.27;;;;;;;;;;5045863;28;20258;-74
2022/07/10 00:21:20;;;;;;;2.50;1.00;;;;;;;;;;5046430;28;20200;-74
2022/07/10 00:23:48;;;;;;;2.77;1.07;;;;;;;;;;5033174;28;20199;-74
2022/07/10 00:26:17;;;;;;;4.07;1.23;;;;;;;;;;5041959;28;20712;-74
2022/07/10 00:28:45;;;;;;;6.40;1.17;;;;;;;;;;5053359;28;20199;-74
2022/07/10 00:31:14;;;;;;;6.63;1.33;;;;;;;;;;5046401;28;20226;-75
2022/07/10 00:33:42;;;;;;;3.53;1.23;;;;;;;;;;5033421;28;20208;-75
2022/07/10 00:36:11;;;;;;;5.07;1.30;;;;;;;;;;5035601;28;20232;-74
2022/07/10 00:38:41;;;;;;;4.10;1.20;;;;;;;;;;5033360;28;20269;-74
2022/07/10 00:41:09;;;;;;;4.23;1.00;;;;;;;;;;5037750;28;20253;-74
2022/07/10 00:43:52;;;;;;;2.67;0.90;;;;;;;;;;5053079;28;20215;-75
2022/07/10 00:46:21;;;;;;;3.33;0.90;;;;;;;;;;5052643;28;20231;-74
2022/07/10 00:48:49;;;;;;;2.97;1.10;;;;;;;;;;5052592;28;20286;-74
2022/07/10 00:51:19;;;;;;;4.13;1.30;;;;;;;;;;5052925;28;20207;-74
2022/07/10 00:53:49;;;;;;;4.40;1.30;;;;;;;;;;5053270;28;20206;-74
2022/07/10 00:56:19;;;;;;;5.47;1.40;;;;;;;;;;5052557;28;20288;-75
2022/07/10 00:58:47;;;;;;;6.37;1.20;;;;;;;;;;5053041;28;20269;-74
2022/07/10 01:01:16;;;;;;;2.87;1.10;;;;;;;;;;5050347;28;20682;-74
2022/07/10 01:03:46;;;;;;;4.37;1.63;;;;;;;;;;5037246;28;20652;-75
2022/07/10 01:06:14;;;;;;;3.90;1.30;;;;;;;;;;5052463;28;20626;-75
2022/07/10 01:08:43;;;;;;;4.57;1.40;;;;;;;;;;5053268;28;20211;-74
2022/07/10 01:11:14;;;;;;;3.63;1.27;;;;;;;;;;5052447;28;20215;-75
2022/07/10 01:13:44;;;;;;;5.50;1.33;;;;;;;;;;5043202;28;20690;-75
2022/07/10 01:16:13;;;;;;;4.77;1.40;;;;;;;;;;5052901;28;20231;-75
2022/07/10 01:18:42;;;;;;;3.07;1.50;;;;;;;;;;5050946;28;20203;-75
2022/07/10 01:21:25;;;;;;;3.97;1.53;;;;;;;;;;5049035;28;20199;-75
2022/07/10 01:23:54;;;;;;;4.97;1.43;;;;;;;;;;5036770;28;20191;-75
2022/07/10 01:26:23;;;;;;;5.93;1.43;;;;;;;;;;5047477;28;20692;-74
2022/07/10 01:28:52;;;;;;;3.80;1.40;;;;;;;;;;5055689;28;20214;-74
2022/07/10 01:31:21;;;;;;;5.20;1.40;;;;;;;;;;5056859;28;20207;-74
2022/07/10 01:33:49;;;;;;;3.60;1.30;;;;;;;;;;5055978;28;20230;-75
2022/07/10 01:36:18;;;;;;;5.30;1.40;;;;;;;;;;5056071;28;20683;-75
2022/07/10 01:38:48;;;;;;;4.73;1.30;;;;;;;;;;5056120;28;20652;-74
2022/07/10 01:41:16;;;;;;;4.43;1.53;;;;;;;;;;5055808;28;20214;-74
2022/07/10 01:43:45;;;;;;;5.10;1.30;;;;;;;;;;5055647;28;20550;-74
2022/07/10 01:46:14;;;;;;;5.57;1.60;;;;;;;;;;5054020;28;20261;-75
2022/07/10 01:48:42;;;;;;;5.57;1.63;;;;;;;;;;5048248;28;20612;-74
2022/07/10 01:51:11;;;;;;;4.87;1.47;;;;;;;;;;5044882;28;20203;-75
2022/07/10 01:53:40;;;;;;;5.17;1.50;;;;;;;;;;5055846;28;20239;-74
2022/07/10 01:56:11;;;;;;;3.73;1.20;;;;;;;;;;5055553;28;20269;-74
2022/07/10 01:58:40;;;;;;;3.90;1.60;;;;;;;;;;5051880;28;20203;-75
2022/07/10 02:01:10;;;;;;;4.20;1.40;;;;;;;;;;5055518;28;20641;-74
2022/07/10 02:06:25;;;;;;;4.10;1.53;;;;;;;;;;5055301;28;20626;-74
2022/07/10 02:08:53;;;;;;;4.33;1.20;;;;;;;;;;5055089;28;20207;-75
2022/07/10 02:11:23;;;;;;;6.77;1.57;;;;;;;;;;5050611;28;20660;-75
2022/07/10 02:13:51;;;;;;;7.43;1.80;;;;;;;;;;5055807;28;20203;-75
2022/07/10 02:16:20;;;;;;;4.97;1.73;;;;;;;;;;5051514;28;20223;-74
2022/07/10 02:18:48;;;;;;;5.93;1.53;;;;;;;;;;5042726;28;20199;-74
2022/07/10 02:21:17;;;;;;;5.40;1.53;;;;;;;;;;5054845;28;20265;-74
2022/07/10 02:23:45;;;;;;;4.73;1.60;;;;;;;;;;5055484;28;20252;-74
2022/07/10 02:26:13;;;;;;;8.13;1.57;;;;;;;;;;5054310;28;20230;-75
2022/07/10 02:28:43;;;;;;;4.67;1.10;;;;;;;;;;5041592;28;20714;-74
2022/07/10 02:31:12;;;;;;;4.87;1.57;;;;;;;;;;5054496;28;20210;-75
2022/07/10 02:33:40;;;;;;;8.13;1.70;;;;;;;;;;5055116;28;20203;-74
2022/07/10 02:36:09;;;;;;;6.17;1.60;;;;;;;;;;5054790;28;20227;-75
2022/07/10 02:38:37;;;;;;;5.13;1.50;;;;;;;;;;5053729;28;20712;-75
2022/07/10 02:41:06;;;;;;;6.80;1.70;;;;;;;;;;5053586;28;20318;-74
2022/07/10 02:43:34;;;;;;;4.43;1.50;;;;;;;;;;5055231;28;20207;-74
2022/07/10 02:46:04;;;;;;;5.57;1.63;;;;;;;;;;5054897;28;20231;-74
2022/07/10 02:48:33;;;;;;;6.10;1.50;;;;;;;;;;5048040;28;20204;-75
2022/07/10 02:51:01;;;;;;;3.80;1.60;;;;;;;;;;5054680;28;20199;-74
2022/07/10 02:53:30;;;;;;;4.17;1.70;;;;;;;;;;5054582;28;20644;-75
2022/07/10 02:55:59;;;;;;;5.07;1.77;;;;;;;;;;5054582;28;20255;-75
2022/07/10 02:58:28;;;;;;;6.83;1.77;;;;;;;;;;5047557;28;20211;-74
2022/07/10 03:00:56;;;;;;;7.83;1.87;;;;;;;;;;5041542;28;20653;-74
2022/07/10 03:03:26;;;;;;;7.43;1.70;;;;;;;;;;5054394;28;20215;-74
2022/07/10 03:05:54;;;;;;;5.67;1.80;;;;;;;;;;5054143;28;20219;-74
2022/07/10 03:08:23;;;;;;;3.00;1.40;;;;;;;;;;5053265;28;20599;-75
2022/07/10 03:10:51;;;;;;;6.27;1.83;;;;;;;;;;5039530;28;20207;-74
2022/07/10 03:13:20;;;;;;;3.47;1.77;;;;;;;;;;5054610;28;20616;-75
2022/07/10 03:15:49;;;;;;;7.40;1.63;;;;;;;;;;5053751;28;20234;-74
2022/07/10 03:18:17;;;;;;;4.37;1.83;;;;;;;;;;5053984;28;20207;-75
2022/07/10 03:20:47;;;;;;;5.87;1.70;;;;;;;;;;5046532;28;20740;-74
2022/07/10 03:23:16;;;;;;;10.37;1.50;;;;;;;;;;5054495;28;20648;-75
2022/07/10 03:25:44;;;;;;;4.80;1.50;;;;;;;;;;5054173;28;20233;-74
2022/07/10 03:28:12;;;;;;;5.50;1.47;;;;;;;;;;5054245;28;20210;-75
2022/07/10 03:30:41;;;;;;;4.20;1.70;;;;;;;;;;5053793;28;20191;-75
2022/07/10 03:33:10;;;;;;;3.93;1.50;;;;;;;;;;5034173;28;20676;-75
2022/07/10 03:35:38;;;;;;;5.60;1.70;;;;;;;;;;5049884;28;20269;-75
2022/07/10 03:38:08;;;;;;;6.43;1.47;;;;;;;;;;5054252;28;20206;-74
2022/07/10 03:40:36;;;;;;;10.40;1.87;;;;;;;;;;5053640;28;20226;-74
2022/07/10 03:43:08;;;;;;;5.30;1.70;;;;;;;;;;5053011;28;20210;-74
2022/07/10 03:45:36;;;;;;;7.60;2.13;;;;;;;;;;5052978;28;20249;-74
2022/07/10 03:48:05;;;;;;;7.33;1.83;;;;;;;;;;5044937;28;20212;-75
2022/07/10 03:50:33;;;;;;;11.03;1.93;;;;;;;;;;5049969;28;20207;-74
2022/07/10 03:53:02;;;;;;;5.70;1.97;;;;;;;;;;5053548;28;20199;-74
2022/07/10 03:55:32;;;;;;;4.87;1.60;;;;;;;;;;5053755;28;20700;-74
2022/07/10 03:58:02;;;;;;;6.10;1.63;;;;;;;;;;5053430;28;20269;-74
2022/07/10 04:00:33;;;;;;;6.30;1.70;;;;;;;;;;5051088;28;20638;-74
2022/07/10 04:03:02;;;;;;;6.67;1.70;;;;;;;;;;5053306;28;20270;-74
2022/07/10 04:05:31;;;;;;;4.23;1.53;;;;;;;;;;5053663;28;20659;-74
2022/07/10 04:08:00;;;;;;;7.13;1.77;;;;;;;;;;5053215;28;20207;-74
2022/07/10 04:10:29;;;;;;;5.00;1.63;;;;;;;;;;5053408;28;20219;-74
2022/07/10 04:12:59;;;;;;;6.97;1.67;;;;;;;;;;5049225;28;20550;-74
2022/07/10 04:15:27;;;;;;;5.90;1.67;;;;;;;;;;5052890;28;20215;-75
2022/07/10 04:17:56;;;;;;;4.27;1.50;;;;;;;;;;5045044;28;20664;-74
2022/07/10 04:20:25;;;;;;;7.30;1.90;;;;;;;;;;5050952;28;20635;-74
2022/07/10 04:22:54;;;;;;;4.90;1.83;;;;;;;;;;5046734;28;20203;-74
2022/07/10 04:25:22;;;;;;;7.03;1.80;;;;;;;;;;5053115;28;20273;-75
2022/07/10 04:27:50;;;;;;;5.63;1.63;;;;;;;;;;5042630;28;20203;-74
2022/07/10 04:30:20;;;;;;;6.50;2.00;;;;;;;;;;5046278;28;20571;-75
2022/07/10 04:32:49;;;;;;;4.70;1.57;;;;;;;;;;5052149;28;20211;-75
2022/07/10 04:35:18;;;;;;;5.13;1.80;;;;;;;;;;5052812;28;20269;-75
2022/07/10 04:37:46;;;;;;;5.90;1.57;;;;;;;;;;5033308;28;20245;-74
2022/07/10 04:40:15;;;;;;;6.50;1.80;;;;;;;;;;5051258;28;20261;-75
2022/07/10 04:42:43;;;;;;;6.73;1.73;;;;;;;;;;5052621;28;20698;-75
2022/07/10 04:45:12;;;;;;;9.23;2.20;;;;;;;;;;5053168;28;20227;-74
2022/07/10 04:47:41;;;;;;;6.10;1.83;;;;;;;;;;5048995;28;20202;-74
2022/07/10 04:50:10;;;;;;;7.17;1.87;;;;;;;;;;5041811;28;20692;-74
2022/07/10 04:52:38;;;;;;;8.33;2.00;;;;;;;;;;5033513;28;20191;-74
2022/07/10 04:55:08;;;;;;;4.67;1.77;;;;;;;;;;5053298;28;20251;-74
2022/07/10 04:57:36;;;;;;;4.40;1.60;;;;;;;;;;5056560;28;20210;-74
2022/07/10 05:00:05;;;;;;;6.73;1.90;;;;;;;;;;5040815;28;20211;-75
2022/07/10 05:02:34;;;;;;;4.80;1.90;;;;;;;;;;5055327;28;20587;-74
2022/07/10 05:05:04;;;;;;;7.40;1.90;;;;;;;;;;5057239;28;20229;-75
2022/07/10 05:07:35;;;;;;;5.87;1.87;;;;;;;;;;5056994;28;20210;-74
2022/07/10 05:10:04;;;;;;;5.43;2.00;;;;;;;;;;5056509;28;20215;-74
2022/07/10 05:12:32;;;;;;;5.53;1.70;;;;;;;;;;5047822;28;20212;-75
2022/07/10 05:15:01;;;;;;;6.83;1.83;;;;;;;;;;5056915;28;20223;-75
2022/07/10 05:17:31;;;;;;;6.47;1.80;;;;;;;;;;5052458;28;20203;-75
2022/07/10 05:20:00;;;;;;;5.60;1.83;;;;;;;;;;5055042;28;20559;-75
2022/07/10 05:22:30;;;;;;;7.17;1.70;;;;;;;;;;5047704;28;20219;-74
2022/07/10 05:24:59;;;;;;;8.70;1.93;;;;;;;;;;5053325;28;20231;-74
2022/07/10 05:27:27;;;;;;;4.97;1.87;;;;;;;;;;5036552;28;20203;-74
2022/07/10 05:29:56;;;;;;;6.97;1.90;;;;;;;;;;5036517;28;20204;-75
2022/07/10 05:32:25;;;;;;;7.47;1.70;;;;;;;;;;5040858;28;20211;-75
2022/07/10 05:34:53;;;;;;;7.57;2.00;;;;;;;;;;5053778;28;20230;-75
2022/07/10 05:37:21;;;;;;;6.63;1.83;;;;;;;;;;5036539;28;20567;-74
2022/07/10 05:39:51;;;;;;;6.17;1.77;;;;;;;;;;5048309;28;20199;-74
2022/07/10 05:42:20;;;;;;;6.63;1.90;;;;;;;;;;5053128;28;20218;-75
2022/07/10 05:44:48;;;;;;;4.47;1.73;;;;;;;;;;5036313;28;20211;-75
2022/07/10 05:47:17;;;;;;;5.13;1.93;;;;;;;;;;5054996;28;20214;-75
2022/07/10 05:49:45;;;;;;;10.70;2.30;;;;;;;;;;5055209;28;20207;-75
2022/07/10 05:52:16;;;;;;;7.10;1.90;;;;;;;;;;5055630;28;20199;-75
2022/07/10 05:54:44;;;;;;;5.17;1.70;;;;;;;;;;5055350;28;20199;-75
2022/07/10 05:57:14;;;;;;;6.80;1.60;;;;;;;;;;5055723;28;20215;-75
2022/07/10 05:59:42;;;;;;;6.10;1.87;;;;;;;;;;5055767;28;20273;-74
2022/07/10 06:02:11;;;;;;;5.47;1.60;;;;;;;;;;5046001;28;20215;-75
2022/07/10 06:04:39;;;;;;;8.87;2.00;;;;;;;;;;5054633;28;20573;-75
2022/07/10 06:07:08;;;;;;;9.43;2.10;;;;;;;;;;5051876;28;20234;-75
2022/07/10 06:09:36;;;;;;;7.00;2.00;;;;;;;;;;5053731;28;20207;-74
2022/07/10 06:12:05;;;;;;;4.33;1.70;;;;;;;;;;5049530;28;20226;-74
2022/07/10 06:14:35;;;;;;;4.90;1.70;;;;;;;;;;5055248;28;20203;-75
2022/07/10 06:17:04;;;;;;;5.47;1.60;;;;;;;;;;5051336;28;20260;-75
2022/07/10 06:19:32;;;;;;;5.97;1.53;;;;;;;;;;5055342;28;20211;-73
2022/07/10 06:24:47;;;;;;;5.10;1.80;;;;;;;;;;5055277;28;20187;-74
2022/07/10 06:27:15;;;;;;;8.07;1.80;;;;;;;;;;5055383;28;20211;-74
2022/07/10 06:29:45;;;;;;;5.53;1.53;;;;;;;;;;5053424;28;20583;-75
2022/07/10 06:32:14;;;;;;;6.53;1.70;;;;;;;;;;5042393;28;20250;-74
2022/07/10 06:34:42;;;;;;;5.23;1.53;;;;;;;;;;5041249;28;20203;-75
2022/07/10 06:37:10;;;;;;;6.20;1.63;;;;;;;;;;5050982;28;20632;-74
2022/07/10 06:39:39;;;;;;;6.73;1.83;;;;;;;;;;5054942;28;20298;-75
2022/07/10 06:42:08;;;;;;;7.93;1.77;;;;;;;;;;5054232;28;20229;-74
2022/07/10 06:44:36;;;;;;;6.30;1.60;;;;;;;;;;5053949;28;20645;-75
2022/07/10 06:49:53;;;;;;;6.95;1.88;;;;;;;;;;5013751;28;20215;-74
2022/07/10 06:52:22;;;;;;;3.92;1.52;;;;;;;;;;5053020;28;20206;-75
2022/07/10 06:54:51;;;;;;;5.20;1.80;;;;;;;;;;5054205;28;20195;-74
2022/07/10 06:57:20;;;;;;;5.00;1.53;;;;;;;;;;5054001;28;20634;-74
2022/07/10 06:59:49;;;;;;;5.72;1.52;;;;;;;;;;5043886;28;20211;-75
2022/07/10 07:02:19;;;;;;;5.32;1.40;;;;;;;;;;5048071;28;20223;-75
2022/07/10 07:04:48;;;;;;;5.75;1.70;;;;;;;;;;5034466;28;20576;-74
2022/07/10 07:07:16;;;;;;;4.15;1.30;;;;;;;;;;5050977;28;20199;-74
2022/07/10 07:09:52;;;;;;;4.25;1.60;;;;;;;;;;5046471;28;20214;-75
2022/07/10 07:12:21;;;;;;;7.05;2.03;;;;;;;;;;5054074;28;20652;-74
2022/07/10 07:14:49;;;;;;;5.07;1.70;;;;;;;;;;5054323;28;20215;-74
2022/07/10 07:17:23;;;;;;;5.28;1.48;;;;;;;;;;5053871;28;20671;-75
2022/07/10 07:25:24;;;;;;;5.35;1.50;;;;;;;;;;5048302;28;20219;-74
2022/07/10 07:27:53;;;;;;;4.80;1.60;;;;;;;;;;5054206;28;20570;-75
2022/07/10 07:30:21;;;;;;;3.85;1.80;;;;;;;;;;5054665;28;20206;-75
2022/07/10 07:32:51;;;;;;;5.05;1.58;;;;;;;;;;5048624;28;20207;-75
2022/07/10 07:35:20;;;;;;;4.32;1.52;;;;;;;;;;5038217;28;20231;-75
2022/07/10 07:37:49;;;;;;;9.18;1.88;;;;;;;;;;5052817;28;20203;-74
2022/07/10 07:40:21;;;;;;;7.43;1.90;;;;;;;;;;5053618;28;20199;-75
2022/07/10 07:42:49;;;;;;;6.88;1.90;;;;;;;;;;5053987;28;20222;-74
2022/07/10 07:45:18;;;;;;;5.13;1.80;;;;;;;;;;5051898;28;20220;-74
2022/07/10 07:47:47;;;;;;;4.70;1.63;;;;;;;;;;5042297;28;20202;-74
2022/07/10 07:50:18;;;;;;;6.68;1.80;;;;;;;;;;5054580;28;20592;-75
2022/07/10 07:52:47;;;;;;;6.63;1.83;;;;;;;;;;5052993;28;20614;-74
2022/07/10 07:55:16;;;;;;;8.17;1.80;;;;;;;;;;5053496;28;20642;-76
2022/07/10 07:57:45;;;;;;;4.97;1.90;;;;;;;;;;5047535;28;20218;-74
2022/07/10 08:00:15;;;;;;;5.10;1.70;;;;;;;;;;5053061;28;20261;-74
2022/07/10 08:02:43;;;;;;;7.37;1.67;;;;;;;;;;5047196;28;20695;-74
2022/07/10 08:05:12;;;;;;;5.77;1.70;;;;;;;;;;5052359;28;20226;-74
2022/07/10 08:07:43;;;;;;;5.33;1.50;;;;;;;;;;5045790;28;20229;-74
2022/07/10 08:10:16;;;;;;;5.60;1.57;;;;;;;;;;5054213;28;20726;-74
2022/07/10 08:12:46;;;;;;;5.57;1.60;;;;;;;;;;5033846;28;20188;-74
2022/07/10 08:15:17;;;;;;;5.13;1.70;;;;;;;;;;5045316;28;20219;-75
2022/07/10 08:17:48;;;;;;;5.05;1.80;;;;;;;;;;5039546;28;20485;-75
2022/07/10 08:20:16;;;;;;;4.23;1.50;;;;;;;;;;5049828;28;20204;-76
2022/07/10 08:22:48;;;;;;;4.80;1.67;;;;;;;;;;5046187;28;20216;-74
2022/07/10 08:25:21;;;;;;;4.83;1.90;;;;;;;;;;5036981;28;20227;-75
2022/07/10 08:27:50;;;;;;;6.30;1.58;;;;;;;;;;5052466;28;20214;-74
2022/07/10 08:30:19;;;;;;;4.03;1.50;;;;;;;;;;5051769;28;20206;-76
2022/07/10 08:32:49;;;;;;;3.85;1.40;;;;;;;;;;5049831;28;20203;-76
2022/07/10 08:35:17;;;;;;;5.47;1.83;;;;;;;;;;5050229;28;20219;-74
2022/07/10 08:37:47;;;;;;;5.38;1.50;;;;;;;;;;5053275;28;20213;-75
2022/07/10 08:40:16;;;;;;;6.35;1.80;;;;;;;;;;5052667;28;20207;-74
2022/07/10 08:42:45;;;;;;;5.03;1.60;;;;;;;;;;5043976;28;20198;-75
2022/07/10 08:45:14;;;;;;;6.38;1.73;;;;;;;;;;5051867;28;20226;-75
2022/07/10 08:47:44;;;;;;;7.88;1.85;;;;;;;;;;5048245;28;20199;-75
2022/07/10 08:50:17;;;;;;;6.45;1.73;;;;;;;;;;5053160;28;20234;-75
2022/07/10 08:52:55;;;;;;;5.32;1.60;;;;;;;;;;5050446;28;20292;-75
2022/07/10 08:55:26;;;;;;;6.60;1.63;;;;;;;;;;5051045;28;20231;-75
2022/07/10 08:57:55;;;;;;;5.50;1.77;;;;;;;;;;5032539;28;20196;-75
2022/07/10 09:00:24;;;;;;;5.38;1.50;;;;;;;;;;5047668;28;20238;-75
2022/07/10 09:02:55;;;;;;;4.18;1.73;;;;;;;;;;5052435;28;20245;-75
2022/07/10 09:05:24;;;;;;;5.30;1.55;;;;;;;;;;5052692;28;20313;-75
2022/07/10 09:07:54;;;;;;;6.05;1.92;;;;;;;;;;5052944;28;20206;-74
2022/07/10 09:10:25;;;;;;;7.55;1.63;;;;;;;;;;5051529;28;20199;-75
2022/07/10 09:12:55;;;;;;;6.65;1.70;;;;;;;;;;5051605;28;20207;-74
2022/07/10 09:15:24;;;;;;;6.18;1.60;;;;;;;;;;5039329;28;20228;-74
2022/07/10 09:17:56;;;;;;;5.53;1.42;;;;;;;;;;5052764;28;20652;-75
2022/07/10 09:20:32;;;;;;;5.43;1.63;;;;;;;;;;5052383;28;20559;-76
2022/07/10 09:23:11;;;;;;;5.60;1.92;;;;;;;;;;5052875;28;20195;-75
2022/07/10 09:25:39;;;;;;;5.15;1.40;;;;;;;;;;5045706;28;20226;-74
2022/07/10 09:28:08;;;;;;;4.28;1.38;;;;;;;;;;5052796;28;20202;-75
2022/07/10 09:30:37;;;;;;;5.97;1.45;;;;;;;;;;5048343;28;20249;-74
2022/07/10 09:33:19;;;;;;;3.88;1.50;;;;;;;;;;5050385;28;20214;-74
2022/07/10 09:36:07;;;;;;;5.55;1.52;;;;;;;;;;5051470;28;20233;-74
2022/07/10 09:38:53;;;;;;;3.22;1.40;;;;;;;;;;5052663;28;20199;-74
2022/07/10 09:41:23;;;;;;;4.28;1.40;;;;;;;;;;5054211;28;20219;-74
2022/07/10 09:43:52;;;;;;;4.22;1.45;;;;;;;;;;5054702;28;20223;-75
2022/07/10 09:46:22;;;;;;;3.55;1.40;;;;;;;;;;5053295;28;20699;-75
2022/07/10 09:49:01;;;;;;;4.68;1.60;;;;;;;;;;5054185;28;20211;-74
2022/07/10 09:51:32;;;;;;;3.40;1.40;;;;;;;;;;5053851;28;20222;-74
2022/07/10 09:54:06;;;;;;;3.25;1.40;;;;;;;;;;5052165;28;20210;-74
2022/07/10 09:56:41;;;;;;;4.43;1.50;;;;;;;;;;5045254;28;20223;-75
2022/07/10 09:59:11;;;;;;;2.50;1.30;;;;;;;;;;5053649;28;20659;-75
2022/07/10 10:01:43;;;;;;;3.53;1.58;;;;;;;;;;5053106;28;20261;-76
2022/07/10 10:04:12;;;;;;;3.90;1.40;;;;;;;;;;5050310;28;20207;-75
2022/07/10 10:06:41;;;;;;;5.93;1.40;;;;;;;;;;5047267;28;20227;-75
2022/07/10 10:09:14;;;;;;;6.68;1.70;;;;;;;;;;5053809;28;20233;-75
2022/07/10 10:11:45;;;;;;;3.47;1.20;;;;;;;;;;5045158;28;20215;-74
2022/07/10 10:14:14;;;;;;;3.63;1.27;;;;;;;;;;5054632;28;20195;-74
2022/07/10 10:16:45;;;;;;;5.03;1.63;;;;;;;;;;5055471;28;20292;-74
2022/07/10 10:22:03;;;;;;;3.35;1.50;;;;;;;;;;5052468;28;20200;-75
2022/07/10 10:24:34;;;;;;;3.50;1.60;;;;;;;;;;5052981;28;20223;-74
2022/07/10 10:27:02;;;;;;;5.50;1.70;;;;;;;;;;5049119;28;20203;-74
2022/07/10 10:29:32;;;;;;;4.80;1.67;;;;;;;;;;5055707;28;20218;-74
2022/07/10 10:32:00;;;;;;;6.22;1.55;;;;;;;;;;5044680;28;20620;-74
2022/07/10 10:34:40;;;;;;;4.10;1.30;;;;;;;;;;5054688;28;20203;-74
2022/07/10 10:37:31;;;;;;;4.25;1.17;;;;;;;;;;5050149;28;20203;-75
2022/07/10 10:40:02;;;;;;;5.03;1.58;;;;;;;;;;5039491;28;20215;-74
2022/07/10 10:45:27;;;;;;;4.38;1.65;;;;;;;;;;5055937;28;20595;-76
2022/07/10 10:47:59;;;;;;;3.95;1.52;;;;;;;;;;5055083;28;20207;-77
2022/07/10 10:50:48;;;;;;;4.82;1.70;;;;;;;;;;5054791;28;20203;-77
2022/07/10 10:53:17;;;;;;;5.88;1.88;;;;;;;;;;5055360;28;20199;-77
2022/07/10 10:56:04;;;;;;;4.60;1.50;;;;;;;;;;5035338;28;20310;-77
2022/07/10 10:58:39;;;;;;;6.10;1.77;;;;;;;;;;5035262;28;20204;-76
2022/07/10 11:01:25;;;;;;;3.08;1.60;;;;;;;;;;5035283;28;20195;-77
2022/07/10 11:04:14;;;;;;;6.40;1.65;;;;;;;;;;5038635;28;20550;-77
2022/07/10 11:06:43;;;;;;;3.70;1.70;;;;;;;;;;5035341;28;20255;-77
2022/07/10 11:09:28;;;;;;;6.32;1.88;;;;;;;;;;5035545;28;20203;-76
2022/07/10 11:12:01;;;;;;;4.75;1.80;;;;;;;;;;5046681;28;20602;-76
2022/07/10 11:14:31;;;;;;;4.47;1.83;;;;;;;;;;5054889;28;20675;-77
2022/07/10 11:17:00;;;;;;;3.83;1.48;;;;;;;;;;5054301;28;20226;-76
2022/07/10 11:19:30;;;;;;;3.58;1.50;;;;;;;;;;5055056;28;20227;-76
2022/07/10 11:22:16;;;;;;;5.63;1.75;;;;;;;;;;5054441;28;20203;-77
2022/07/10 11:24:50;;;;;;;4.70;1.58;;;;;;;;;;5054347;28;20676;-76
2022/07/10 11:27:28;;;;;;;8.30;1.75;;;;;;;;;;5054744;28;20183;-77
2022/07/10 11:30:01;;;;;;;5.57;1.60;;;;;;;;;;5054432;28;20611;-77
2022/07/10 11:32:30;;;;;;;6.75;1.67;;;;;;;;;;5054410;28;20187;-77
2022/07/10 11:34:59;;;;;;;4.88;1.55;;;;;;;;;;5053884;28;20215;-76
2022/07/10 11:37:30;;;;;;;4.40;1.33;;;;;;;;;;5054456;28;20195;-76
2022/07/10 11:40:19;;;;;;;4.57;1.92;;;;;;;;;;5054778;28;20659;-76
2022/07/10 11:42:51;;;;;;;2.70;1.35;;;;;;;;;;5049791;28;20218;-76
2022/07/10 11:45:26;;;;;;;4.57;1.70;;;;;;;;;;5034552;28;20235;-77
2022/07/10 11:47:55;;;;;;;4.53;1.35;;;;;;;;;;5034780;28;20191;-77
2022/07/10 11:50:24;;;;;;;5.25;1.77;;;;;;;;;;5033694;28;20204;-77
2022/07/10 11:52:53;;;;;;;4.53;1.40;;;;;;;;;;5034106;28;20211;-76
2022/07/10 11:55:23;;;;;;;5.95;1.30;;;;;;;;;;5034004;28;20232;-76
2022/07/10 11:57:52;;;;;;;2.60;1.10;;;;;;;;;;5034005;28;20204;-76
2022/07/10 12:00:26;;;;;;;3.90;1.10;;;;;;;;;;5033856;28;20208;-76
2022/07/10 12:02:55;;;;;;;3.55;1.10;;;;;;;;;;5050177;28;20188;-77
2022/07/10 12:05:34;;;;;;;4.95;1.30;;;;;;;;;;5054022;28;20231;-76
2022/07/10 12:08:05;;;;;;;3.00;1.40;;;;;;;;;;5053703;28;20211;-78
2022/07/10 12:10:35;;;;;;;4.07;1.25;;;;;;;;;;5054839;28;20568;-76
2022/07/10 12:13:07;;;;;;;3.95;1.48;;;;;;;;;;5054700;28;20235;-77
2022/07/10 12:15:38;;;;;;;3.50;1.38;;;;;;;;;;5053260;28;20219;-77
2022/07/10 12:18:08;;;;;;;1.65;1.17;;;;;;;;;;5053063;28;20195;-76
2022/07/10 12:20:37;;;;;;;3.45;1.65;;;;;;;;;;5052996;28;20246;-77
2022/07/10 12:23:05;;;;;;;3.97;1.52;;;;;;;;;;5053712;28;20202;-77
2022/07/10 12:25:34;;;;;;;4.43;1.55;;;;;;;;;;5052669;28;20254;-77
2022/07/10 12:28:08;;;;;;;5.40;1.80;;;;;;;;;;5054102;28;20212;-77
2022/07/10 12:30:40;;;;;;;4.05;1.42;;;;;;;;;;5054133;28;20190;-76
2022/07/10 12:33:09;;;;;;;4.63;1.52;;;;;;;;;;5053549;28;20199;-77
2022/07/10 12:35:50;;;;;;;4.85;1.80;;;;;;;;;;5053904;28;20219;-76
2022/07/10 12:38:20;;;;;;;4.27;1.67;;;;;;;;;;5053476;28;20194;-76
2022/07/10 12:40:48;;;;;;;3.60;1.77;;;;;;;;;;5053092;28;20199;-76
2022/07/10 12:43:27;;;;;;;3.95;1.70;;;;;;;;;;5053417;28;20313;-77
2022/07/10 12:46:16;;;;;;;3.65;1.88;;;;;;;;;;5053268;28;20297;-77
2022/07/10 12:48:45;;;;;;;4.38;1.80;;;;;;;;;;5053641;28;20634;-76
2022/07/10 12:51:24;;;;;;;4.18;1.63;;;;;;;;;;5053000;28;20211;-77
2022/07/10 12:53:52;;;;;;;3.08;1.63;;;;;;;;;;5053289;28;20214;-77
2022/07/10 12:56:28;;;;;;;4.13;1.80;;;;;;;;;;5053186;28;20306;-77
2022/07/10 12:58:56;;;;;;;4.72;1.58;;;;;;;;;;5053256;28;20214;-77
2022/07/10 13:01:30;;;;;;;4.75;1.98;;;;;;;;;;5053120;28;20577;-77
2022/07/10 13:04:00;;;;;;;3.33;1.92;;;;;;;;;;5033285;28;20190;-77
2022/07/10 13:06:29;;;;;;;4.30;1.65;;;;;;;;;;5032856;28;20231;-77
2022/07/10 13:08:58;;;;;;;4.60;1.80;;;;;;;;;;5032875;28;20208;-77
2022/07/10 13:11:27;;;;;;;4.75;1.90;;;;;;;;;;5032777;28;20215;-76
2022/07/10 13:13:56;;;;;;;5.13;1.77;;;;;;;;;;5033502;28;20652;-77
2022/07/10 13:16:24;;;;;;;3.92;1.60;;;;;;;;;;5037335;28;20259;-76
2022/07/10 13:18:55;;;;;;;4.53;1.77;;;;;;;;;;5036977;28;20627;-77
2022/07/10 13:21:26;;;;;;;6.53;1.83;;;;;;;;;;5036992;28;20195;-77
2022/07/10 13:23:55;;;;;;;4.65;1.63;;;;;;;;;;5036640;28;20195;-77
2022/07/10 13:26:23;;;;;;;4.95;1.50;;;;;;;;;;5036556;28;20569;-77
2022/07/10 13:28:51;;;;;;;4.32;1.58;;;;;;;;;;5036757;28;20211;-77
2022/07/10 13:31:20;;;;;;;5.63;2.10;;;;;;;;;;5043763;28;20207;-77
2022/07/10 13:33:48;;;;;;;5.40;2.00;;;;;;;;;;5056698;28;20218;-76
2022/07/10 13:36:19;;;;;;;6.22;1.90;;;;;;;;;;5056415;28;20249;-77
2022/07/10 13:38:49;;;;;;;5.03;1.60;;;;;;;;;;5056469;28;20203;-77
2022/07/10 13:41:18;;;;;;;5.57;1.70;;;;;;;;;;5047685;28;20200;-77
2022/07/10 13:43:46;;;;;;;8.48;2.08;;;;;;;;;;5036348;28;20220;-78
2022/07/10 13:46:15;;;;;;;3.78;1.45;;;;;;;;;;5036715;28;20228;-77
2022/07/10 13:48:44;;;;;;;4.75;1.73;;;;;;;;;;5036285;28;20203;-77
2022/07/10 13:51:12;;;;;;;7.47;1.92;;;;;;;;;;5036083;28;20208;-77
2022/07/10 13:53:42;;;;;;;4.40;1.83;;;;;;;;;;5036349;28;20211;-77
2022/07/10 13:56:11;;;;;;;3.85;1.63;;;;;;;;;;5036115;28;20223;-77
2022/07/10 13:58:44;;;;;;;5.07;1.98;;;;;;;;;;5036285;28;20663;-77
2022/07/10 14:01:13;;;;;;;4.40;1.48;;;;;;;;;;5036279;28;20212;-77
2022/07/10 14:03:41;;;;;;;5.72;1.85;;;;;;;;;;5035852;28;20214;-77
2022/07/10 14:06:10;;;;;;;6.72;1.80;;;;;;;;;;5043420;28;20223;-77
2022/07/10 14:08:38;;;;;;;3.80;1.60;;;;;;;;;;5055974;28;20567;-77
2022/07/10 14:11:09;;;;;;;3.60;1.50;;;;;;;;;;5055578;28;20242;-77
2022/07/10 14:13:38;;;;;;;3.17;1.33;;;;;;;;;;5055987;28;20206;-77
2022/07/10 14:16:06;;;;;;;4.90;1.52;;;;;;;;;;5055149;28;20272;-77
2022/07/10 14:18:37;;;;;;;6.72;1.55;;;;;;;;;;5055460;28;20214;-77
2022/07/10 14:21:08;;;;;;;7.05;1.55;;;;;;;;;;5056401;28;20215;-77
2022/07/10 14:23:38;;;;;;;5.50;1.40;;;;;;;;;;5055637;28;20203;-77
2022/07/10 14:26:07;;;;;;;4.72;1.52;;;;;;;;;;5054765;28;20231;-77
2022/07/10 14:28:39;;;;;;;3.55;1.10;;;;;;;;;;5054990;28;20187;-77
2022/07/10 14:31:09;;;;;;;3.35;1.10;;;;;;;;;;5055317;28;20189;-77
2022/07/10 14:33:38;;;;;;;5.47;1.27;;;;;;;;;;5055612;28;20207;-77
2022/07/10 14:36:07;;;;;;;3.97;1.30;;;;;;;;;;5054468;28;20266;-76
2022/07/10 14:38:36;;;;;;;2.95;1.30;;;;;;;;;;5055644;28;20202;-76
2022/07/10 14:41:05;;;;;;;6.35;1.75;;;;;;;;;;5055166;28;20265;-77
2022/07/10 14:43:34;;;;;;;5.00;1.55;;;;;;;;;;5055653;28;20761;-77
2022/07/10 14:46:05;;;;;;;2.72;1.13;;;;;;;;;;5055262;28;20310;-77
2022/07/10 14:48:36;;;;;;;3.05;1.40;;;;;;;;;;5055411;28;20656;-77
2022/07/10 14:51:04;;;;;;;2.13;0.90;;;;;;;;;;5056020;28;20215;-76
2022/07/10 14:53:35;;;;;;;2.88;1.10;;;;;;;;;;5055941;28;20222;-76
2022/07/10 14:56:05;;;;;;;3.72;1.33;;;;;;;;;;5055648;28;21045;-77
2022/07/10 14:58:33;;;;;;;2.28;0.90;;;;;;;;;;5055887;28;20210;-77
2022/07/10 15:01:25;;;;;;;2.22;0.98;;;;;;;;;;5054972;28;20317;-77
2022/07/10 15:03:57;;;;;;;2.75;0.90;;;;;;;;;;5054655;28;20210;-77
2022/07/10 15:06:26;;;;;;;3.05;0.80;;;;;;;;;;5054948;28;20239;-76
2022/07/10 15:08:54;;;;;;;2.20;0.90;;;;;;;;;;5055441;28;20214;-76
2022/07/10 15:11:23;;;;;;;3.67;1.20;;;;;;;;;;5054814;28;20303;-76
2022/07/10 15:13:52;;;;;;;2.90;0.80;;;;;;;;;;5055453;28;20199;-76
2022/07/10 15:16:28;;;;;;;1.85;0.80;;;;;;;;;;5054804;28;20222;-77
2022/07/10 15:18:57;;;;;;;1.15;0.75;;;;;;;;;;5055222;28;20188;-76
2022/07/10 15:21:32;;;;;;;2.15;0.80;;;;;;;;;;5054344;28;20249;-76